Terminal Aerodrome Forecast
Issued by NWS

Home | Current Version | Previous Version | Text Only | Print | Product List | Glossary On
Versions: 1 2 3 4 5 6 7 8 9 10 11 12 13 14
988
FTUS43 KIWX 202339
TAFSBN
TAF
KSBN 202339Z 2100/2124 34007KT P6SM BKN070
      TEMPO 2108/2112 4SM BR FEW010
     FM211200 08004KT P6SM FEW030 BKN200
     FM211800 14007KT P6SM SCT040 BKN200=

USA.gov is the U.S. government's official web portal to all federal, state and local government web resources and services.